Hunt, NY (14846)

1:22 AM EDT on April 21, 2015 (GMT -0400)
Nunda Mt Morris TL Rd./Scipio Rd. | | Change Station
CLOSE
Current Station
Personal Weather Station
Location: Nunda, NY
Elevation: 1024 ft
Nearby Weather Stations

Elev 1024 ft 42.58 °N, 77.90 °W | Updated 11 seconds ago

Rain
Rain
49.8 °F
Feels Like 45 °F
N
14.1
Wind Variable Wind from NNW
Gusts 14.1 mph

Today
High -- | Low -- °F
--% Chance of Precip.
Yesterday
High -- | Low -- °F
Precip. -- in
6:21 AM 8:00 PM
Waxing Crescent, 8% visible
Pressure 29.62 in
Visibility 10.0 miles
Clouds Overcast 2800 ft
Windchill 45 °F
Dew Point 39 °F
Humidity 66%
Rainfall 0.00 in
Snow Depth Not available.
UV 0 out of 12
Pollen 4.80 out of 12
Air Quality Not available.
Flu Activity Widespread
METAR KDSV 210454Z AUTO 00000KT 10SM OVC028 11/08 A2960 RMK AO2 RAB0358E46 SLP031 P0002 T01110078 402220078

More Conditions Fewer Conditions

Pressure 29.62 in
Visibility 10.0 miles
Clouds Overcast 2800 ft
Windchill 45 °F
Dew Point 39 °F
Humidity 66%
Rainfall 0.00 in
Snow Depth Not available.
UV 0 out of 12
Pollen 4.80 out of 12
Air Quality Not available.
Flu Activity Widespread
METAR KDSV 210454Z AUTO 00000KT 10SM OVC028 11/08 A2960 RMK AO2 RAB0358E46 SLP031 P0002 T01110078 402220078

More Conditions Fewer Conditions

10-Day Weather Forecast

Almanac

Astronomy

Apr. 21, 2015 Rise Set
Actual Time
Civil Twilight
Nautical Twilight
Astronomical Twilight
Moon
Length of Visible Light
Length of Day
Tomorrow will be .
, % of the Moon is Illuminated

Today's Extremes

State Highs State Lows

Community

WunderPhotos

Upload Photos

1,815,316 photos uploaded!

WunderBlogs® & News

Nearby

Air Quality

  Air Quality AQ Index Pollutant
Not available.

Snow Depth

Station Depth Elevation

Earthquake Activity

City Distance Mag. Time & Date
Minimum magnitude displayed is 2.5.

Coastal Water Temperatures

Place Temperature

Stations

Nearby Weather Stations

Station Location Temp. Windchill Dew Point Humidity Wind Precip. Elev Updated Type